Terminal Aerodrome Forecast
Issued by NWS Louisville, KY

Home | Current Version | Previous Version | Text Only | Print | Product List | Glossary On
Versions: 1 2 3 4 5 6 7 8 9 10 11 12 13
000
FTUS43 KLMK 082147 AAA
TAFBWG
TAF AMD
KBWG 082147Z 0822/0918 30009G20KT 3SM -SHSN BR BKN015 OVC025
      TEMPO 0822/0902 1SM -SN BR BKN009 OVC025
     FM090200 29007KT P6SM VCSH OVC025=

USA.gov is the U.S. government's official web portal to all federal, state and local government web resources and services.